Rampart, Alaska
Current Conditions -  °F | °C
As of 1:52 AM on Friday 24 Oct 2014 (Local Time) from PATA Reporting Station
Overcast Overcast  
Wind Chill: 15°   Ceiling: 2400
Heat Index: 24°   Visibility: 10mi
Dew Point: 17°   Wind: 8mph
Humidity: 75%   Direction: 80°E
Pressure: 29.8"   Gusts: NA
Location:  65.5°N, 150.17°W
Report Text: PATA 240952Z AUTO 08007KT 10SM OVC024 M04/M08 A2980 RMK AO2 SLP098 T10441083 TSNO
Loading
Personal Weather Stations






























Interactive Weather Map
Tropical Storm Tracking
New forecast layout! Learn more

10-Day Weather Forecast

Advertisements
Track Severe Weather on mobile